Airfield :
LOGIN :

Register | Disclaimer

   EN    FR    IT 

 










Legend :    VFR   Marginal VFR   IFR   Intensive IFR   Very Intensive IFR
Visi :
Ceiling :
>= 8 km
>= 3000ft
5 to 8 km
1000 to 3000 ft
1500m to 5 km
500 to 1000 ft
800 to 1500m
200 to 500 ft
< 800m
< 200 ft
Symbols :   Thunderstorms  Fog  Heavy snow  Heavy precipitations  Wind > 20 kt
SIGMETs :     Misc.  Thunderstorms  Icing  Turbulence  Mountain Waves  Volcanic Ashes






- Airport Elevation : 171 ft
- IATA code : EGC


LFBE - Bergerac

CURRENT METAR :
  • 171330Z AUTO 22008KT 190V260 9999 BKN029 BKN036 BKN070 20/14 Q1014 TEMPO 4000 -SHRA BKN020TCU

EXPIRED METARs :
  • 171300Z AUTO 21008KT 170V260 9999 FEW024 BKN070 OVC084 20/14 Q1014 TEMPO 4000 -RA BKN007
  • 171230Z AUTO 16005KT 100V230 9999 FEW021 SCT026 BKN086 19/14 Q1014 TEMPO 4000 -RA BKN007
  • 171200Z AUTO 15007KT 120V180 9999 FEW011 BKN064 19/15 Q1014 TEMPO 4000 -RA BKN007
  • 171130Z AUTO 12007KT 080V160 9999 FEW011 OVC060 17/14 Q1015 TEMPO 4000 -RA BKN007
  • 171100Z AUTO 14007KT 100V170 9999 FEW008 SCT044 OVC052 15/14 Q1015 TEMPO 4000 -RA BKN007

TAF AMD TAF LFBE
Valid from the 17 at 12:00 until the 18 at 12:00 UTC


171219Z 1712/1812 19008KT 9999 BKN020
TEMPO 1712/1715 4000 -RA BKN007
PROB40
TEMPO 1715/1720 4000 -SHRA BKN020TCU
TEMPO 1720/1812 -RA



MET'MAP, your aeronautical weather chart ! - Copyright ORBIFLY December 2007 - Disclaimer

ORBIFLY MET'MAP TEAM :

Programming & Development : Alexandra Zaïnal
Concept & Development : Baudouin d'Aumeries
Co-Development & Prog : Marc-Olivier Méhu
Technical & hardware support : Manuel Goepfert

Contact : metmap@orbifly.com




SOURCES & CREDITS :

   NOAA